Terminal Aerodrome Forecast
Issued by NWS Duluth, MN

Home | Current Version | Previous Version | Text Only | Print | Product List | Glossary On
Versions: 1 2 3 4 5 6 7 8 9 10 11 12 13 14 15 16 17 18 19 20
000
FTUS43 KDLH 261002 AAC
TAFDLH
TAF AMD
KDLH 261002Z 2610/2706 12005KT P6SM OVC050
     FM261400 14008KT 5SM BR VCSH SCT007 OVC035
     FM261800 17007KT P6SM OVC015
     FM262300 17008KT P6SM VCSH OVC025=

USA.gov is the U.S. government's official web portal to all federal, state and local government web resources and services.